Time;durP1;ratioP1;P1;durP2;ratioP2;P2;SDS_P1;SDS_P2;PMS_P1;PMS_P2;Temp;Humidity;BMP_temperature;BMP_pressure;BME280_temperature;BME280_humidity;BME280_pressure;Samples;Min_cycle;Max_cycle;Signal;HPM_P1;HPM_P2
2022/02/22 00:01:13;;;;;;;15.68;7.30;;;5.60;83.60;;;;;;5054019;28;20462;-85
2022/02/22 00:03:39;;;;;;;13.05;7.78;;;5.60;83.50;;;;;;5054548;28;20041;-87
2022/02/22 00:06:05;;;;;;;13.00;7.18;;;5.60;83.90;;;;;;5054647;28;20340;-85
2022/02/22 00:08:32;;;;;;;17.58;7.82;;;5.60;84.00;;;;;;5053902;28;20025;-85
2022/02/22 00:10:58;;;;;;;14.75;8.23;;;5.50;84.40;;;;;;5054046;28;20039;-84
2022/02/22 00:13:28;;;;;;;11.65;6.70;;;5.50;84.30;;;;;;5053921;28;20021;-85
2022/02/22 00:15:55;;;;;;;15.60;8.05;;;5.50;84.30;;;;;;5053977;28;20021;-86
2022/02/22 00:18:21;;;;;;;14.40;7.65;;;5.50;85.10;;;;;;5054011;28;20367;-86
2022/02/22 00:20:47;;;;;;;13.02;7.35;;;5.50;84.60;;;;;;5054784;28;20032;-84
2022/02/22 00:23:14;;;;;;;13.80;7.65;;;5.50;84.80;;;;;;5054923;28;20052;-85
2022/02/22 00:25:39;;;;;;;14.95;7.15;;;5.40;84.90;;;;;;5053930;28;20115;-85
2022/02/22 00:28:06;;;;;;;14.63;7.63;;;5.40;85.20;;;;;;5053933;28;20124;-85
2022/02/22 00:30:33;;;;;;;13.90;7.72;;;5.40;85.30;;;;;;5054745;28;20032;-85
2022/02/22 00:32:59;;;;;;;12.82;7.60;;;5.40;85.60;;;;;;5054002;28;20025;-86
2022/02/22 00:35:25;;;;;;;14.27;7.47;;;5.40;85.90;;;;;;5054645;28;20116;-85
2022/02/22 00:37:51;;;;;;;13.85;7.90;;;5.40;86.20;;;;;;5053405;28;20028;-86
2022/02/22 00:40:17;;;;;;;14.93;7.65;;;5.30;86.30;;;;;;5053574;28;20021;-85
2022/02/22 00:42:43;;;;;;;12.50;7.45;;;5.30;86.50;;;;;;5053650;28;20017;-86
2022/02/22 00:45:10;;;;;;;13.85;7.82;;;5.30;86.50;;;;;;5053314;28;20025;-86
2022/02/22 00:47:35;;;;;;;12.75;7.22;;;5.20;86.70;;;;;;5053713;28;20447;-85
2022/02/22 00:50:03;;;;;;;14.65;7.28;;;5.10;86.70;;;;;;5054639;28;20021;-85
2022/02/22 00:52:29;;;;;;;15.45;7.78;;;5.10;87.40;;;;;;5053183;28;20078;-84
2022/02/22 00:54:55;;;;;;;13.35;7.90;;;5.00;88.30;;;;;;5052927;28;20041;-85
2022/02/22 00:57:21;;;;;;;15.82;8.02;;;4.90;89.00;;;;;;5053172;28;20025;-84
2022/02/22 00:59:47;;;;;;;15.73;9.10;;;4.90;89.50;;;;;;5052659;28;20066;-85
2022/02/22 01:02:13;;;;;;;13.77;7.97;;;4.80;90.20;;;;;;5052587;28;20035;-85
2022/02/22 01:04:39;;;;;;;16.95;8.43;;;4.80;90.50;;;;;;5052980;28;20056;-86
2022/02/22 01:07:05;;;;;;;13.88;8.10;;;4.70;90.90;;;;;;5053124;28;20052;-86
2022/02/22 01:09:31;;;;;;;13.02;7.90;;;4.70;91.20;;;;;;5054344;28;20041;-85
2022/02/22 01:11:56;;;;;;;13.88;8.38;;;4.60;91.50;;;;;;5053488;28;20460;-86
2022/02/22 01:14:22;;;;;;;14.18;7.03;;;4.50;92.10;;;;;;5054465;28;20029;-86
2022/02/22 01:16:48;;;;;;;10.70;6.70;;;4.50;91.90;;;;;;5053039;28;20520;-85
2022/02/22 01:19:14;;;;;;;14.60;7.90;;;4.50;91.80;;;;;;5036332;28;20021;-85
2022/02/22 01:21:40;;;;;;;14.50;8.23;;;4.50;92.20;;;;;;5052613;28;20017;-86
2022/02/22 01:24:06;;;;;;;13.52;7.28;;;4.50;92.50;;;;;;5052864;28;20368;-85
2022/02/22 01:26:33;;;;;;;12.88;8.00;;;4.40;92.50;;;;;;5052191;28;20098;-85
2022/02/22 01:28:59;;;;;;;16.10;8.13;;;4.30;92.70;;;;;;5053415;28;20490;-85
2022/02/22 01:31:26;;;;;;;14.63;8.13;;;4.30;93.70;;;;;;5054139;28;20185;-85
2022/02/22 01:33:55;;;;;;;15.70;8.90;;;4.30;93.80;;;;;;5052637;28;20112;-85
2022/02/22 01:36:25;;;;;;;17.63;9.65;;;4.30;94.50;;;;;;5054240;28;20017;-85
2022/02/22 01:38:52;;;;;;;20.02;10.70;;;4.30;95.20;;;;;;5052722;28;20052;-85
2022/02/22 01:41:20;;;;;;;21.17;11.10;;;4.30;97.00;;;;;;5069568;28;20119;-85
2022/02/22 01:43:46;;;;;;;18.40;10.07;;;4.20;97.90;;;;;;5053712;28;20394;-85
2022/02/22 01:46:12;;;;;;;16.52;9.60;;;4.10;98.20;;;;;;5052936;28;20031;-85
2022/02/22 01:48:39;;;;;;;18.40;10.27;;;4.10;98.70;;;;;;5053543;28;20363;-87
2022/02/22 01:51:06;;;;;;;19.30;10.07;;;4.00;99.90;;;;;;5052196;28;20025;-85
2022/02/22 01:53:32;;;;;;;19.65;11.05;;;4.00;99.90;;;;;;5053566;28;20021;-84
2022/02/22 01:55:59;;;;;;;19.38;11.32;;;3.90;99.90;;;;;;5054361;28;20112;-85
2022/02/22 01:58:27;;;;;;;21.63;11.95;;;3.90;99.90;;;;;;5054148;28;20041;-85
2022/02/22 02:00:53;;;;;;;22.65;11.70;;;3.90;99.90;;;;;;5052687;28;20104;-85
2022/02/22 02:03:20;;;;;;;22.98;12.15;;;3.90;99.90;;;;;;5052342;28;20029;-86
2022/02/22 02:05:46;;;;;;;20.20;10.98;;;3.80;99.90;;;;;;5058259;28;20029;-83
2022/02/22 02:08:13;;;;;;;23.45;12.25;;;3.80;99.90;;;;;;5061719;28;20021;-85
2022/02/22 02:10:39;;;;;;;19.45;11.40;;;3.80;99.90;;;;;;5057343;28;20108;-86
2022/02/22 02:13:05;;;;;;;23.15;13.15;;;3.70;99.90;;;;;;5054080;28;20366;-86
2022/02/22 02:15:30;;;;;;;20.27;12.45;;;3.80;99.90;;;;;;5057192;28;20029;-86
2022/02/22 02:17:57;;;;;;;22.05;11.82;;;3.80;99.90;;;;;;5058137;28;20116;-85
2022/02/22 02:20:23;;;;;;;23.15;13.25;;;3.80;99.90;;;;;;5056386;28;20382;-85
2022/02/22 02:22:49;;;;;;;24.52;12.63;;;3.90;99.90;;;;;;5056164;28;20045;-85
2022/02/22 02:25:15;;;;;;;23.50;12.32;;;3.90;99.90;;;;;;5055616;28;20024;-85
2022/02/22 02:27:42;;;;;;;22.95;12.18;;;3.90;99.90;;;;;;5056050;28;20116;-85
2022/02/22 02:30:10;;;;;;;19.40;12.38;;;3.90;99.90;;;;;;5056367;28;20017;-85
2022/02/22 02:32:36;;;;;;;29.20;13.02;;;3.90;99.90;;;;;;5056378;28;20544;-85
2022/02/22 02:35:03;;;;;;;22.52;13.07;;;3.90;99.90;;;;;;5056091;28;20029;-85
2022/02/22 02:37:29;;;;;;;27.90;13.48;;;3.90;99.90;;;;;;5056206;28;20081;-85
2022/02/22 02:39:55;;;;;;;23.08;12.27;;;3.90;99.90;;;;;;5055389;28;20403;-85
2022/02/22 02:42:21;;;;;;;22.73;12.80;;;4.00;99.90;;;;;;5056041;28;20070;-85
2022/02/22 02:44:48;;;;;;;20.77;11.65;;;4.00;99.90;;;;;;5056015;28;20122;-85
2022/02/22 02:47:15;;;;;;;19.15;10.98;;;4.00;99.90;;;;;;5057208;28;20017;-85
2022/02/22 02:49:43;;;;;;;22.35;11.80;;;4.00;99.90;;;;;;5058746;28;20021;-84
2022/02/22 02:52:09;;;;;;;23.75;13.65;;;4.00;99.90;;;;;;5057028;28;20083;-84
2022/02/22 02:54:35;;;;;;;26.60;13.02;;;4.00;99.90;;;;;;5058145;28;20033;-85
2022/02/22 02:57:02;;;;;;;27.98;14.57;;;4.00;99.90;;;;;;5063089;28;20032;-84
2022/02/22 02:59:27;;;;;;;27.40;14.35;;;4.10;99.90;;;;;;5061086;28;20017;-84
2022/02/22 03:01:53;;;;;;;26.85;13.80;;;4.10;99.90;;;;;;5062822;28;20462;-85
2022/02/22 03:04:19;;;;;;;25.15;14.48;;;4.10;99.90;;;;;;5063284;28;20032;-85
2022/02/22 03:06:46;;;;;;;28.27;16.05;;;4.00;99.90;;;;;;5059817;28;20013;-84
2022/02/22 03:09:12;;;;;;;35.72;17.58;;;4.00;99.90;;;;;;5056541;28;20017;-84
2022/02/22 03:11:38;;;;;;;28.60;16.08;;;4.00;99.90;;;;;;5056717;28;20505;-84
2022/02/22 03:14:05;;;;;;;26.63;15.23;;;4.00;99.90;;;;;;5055473;28;20388;-84
2022/02/22 03:16:30;;;;;;;29.70;15.55;;;4.00;99.90;;;;;;5056710;28;20079;-84
2022/02/22 03:18:56;;;;;;;29.38;14.65;;;4.00;99.90;;;;;;5056387;28;20410;-85
2022/02/22 03:21:22;;;;;;;27.33;15.55;;;4.00;99.90;;;;;;5055656;28;20025;-84
2022/02/22 03:23:48;;;;;;;26.95;14.98;;;4.00;99.90;;;;;;5055038;28;20044;-85
2022/02/22 03:26:14;;;;;;;31.65;17.25;;;4.00;99.90;;;;;;5055684;28;20052;-84
2022/02/22 03:28:39;;;;;;;33.90;17.92;;;4.10;99.90;;;;;;5074976;28;20020;-84
2022/02/22 03:31:05;;;;;;;34.28;18.45;;;4.10;99.90;;;;;;5074072;28;20088;-85
2022/02/22 03:33:32;;;;;;;37.33;20.08;;;4.10;99.90;;;;;;5061468;28;20099;-84
2022/02/22 03:35:59;;;;;;;31.63;16.83;;;4.10;99.90;;;;;;5055504;28;20033;-84
2022/02/22 03:38:25;;;;;;;36.63;18.27;;;4.10;99.90;;;;;;5055809;28;20086;-84
2022/02/22 03:40:51;;;;;;;32.47;17.88;;;4.10;99.90;;;;;;5055079;28;20017;-84
2022/02/22 03:43:17;;;;;;;32.95;17.98;;;4.10;99.90;;;;;;5054774;28;20021;-84
2022/02/22 03:45:42;;;;;;;36.30;17.50;;;4.20;99.90;;;;;;5054595;28;20048;-84
2022/02/22 03:48:08;;;;;;;39.63;20.58;;;4.20;99.90;;;;;;5054655;28;20052;-85
2022/02/22 03:50:34;;;;;;;33.72;17.63;;;4.20;99.90;;;;;;5054679;28;20020;-85
2022/02/22 03:53:00;;;;;;;35.50;17.85;;;4.20;99.90;;;;;;5054562;28;20017;-84
2022/02/22 03:55:26;;;;;;;35.25;17.05;;;4.30;99.90;;;;;;5054494;28;20075;-84
2022/02/22 03:57:52;;;;;;;37.10;18.30;;;4.30;99.90;;;;;;5054515;28;20021;-84
2022/02/22 04:00:21;;;;;;;40.53;20.23;;;4.30;99.90;;;;;;5055985;28;20025;-85
2022/02/22 04:02:47;;;;;;;39.70;18.95;;;4.30;99.90;;;;;;5054406;28;20025;-84
2022/02/22 04:05:15;;;;;;;39.15;19.17;;;4.30;99.90;;;;;;5054477;28;20025;-84
2022/02/22 04:07:41;;;;;;;46.15;21.17;;;4.30;99.90;;;;;;5054817;28;20355;-84
2022/02/22 04:10:08;;;;;;;40.03;19.13;;;4.40;99.90;;;;;;5054265;28;20021;-84
2022/02/22 04:12:34;;;;;;;42.47;20.63;;;4.40;99.90;;;;;;5054275;28;20020;-85
2022/02/22 04:15:00;;;;;;;42.72;20.98;;;4.40;99.90;;;;;;5055278;28;20079;-86
2022/02/22 04:17:26;;;;;;;52.88;21.63;;;4.40;99.90;;;;;;5054173;28;20035;-84
2022/02/22 04:19:52;;;;;;;41.60;20.35;;;4.40;99.90;;;;;;5054151;28;20024;-85
2022/02/22 04:22:21;;;;;;;41.47;20.02;;;4.40;99.90;;;;;;5059698;28;20123;-84
2022/02/22 04:24:47;;;;;;;46.42;21.38;;;4.40;99.90;;;;;;5054937;28;20108;-84
2022/02/22 04:27:13;;;;;;;48.33;22.05;;;4.50;99.90;;;;;;5054902;28;20051;-85
2022/02/22 04:29:39;;;;;;;44.35;20.33;;;4.50;99.90;;;;;;5054331;28;20021;-84
2022/02/22 04:32:07;;;;;;;47.35;21.33;;;4.50;99.90;;;;;;5057561;28;20439;-84
2022/02/22 04:34:34;;;;;;;44.00;21.27;;;4.50;99.90;;;;;;5055711;28;20033;-84
2022/02/22 04:37:00;;;;;;;57.88;23.23;;;4.50;99.90;;;;;;5053439;28;20028;-87
2022/02/22 04:39:26;;;;;;;51.95;23.42;;;4.50;99.90;;;;;;5053966;28;20036;-85
2022/02/22 04:41:51;;;;;;;56.90;24.75;;;4.50;99.90;;;;;;5055284;28;20028;-85
2022/02/22 04:44:18;;;;;;;55.55;23.80;;;4.50;99.90;;;;;;5054742;28;20052;-85
2022/02/22 04:46:44;;;;;;;60.92;23.88;;;4.50;99.90;;;;;;5053513;28;20017;-86
2022/02/22 04:49:10;;;;;;;56.03;22.40;;;4.50;99.90;;;;;;5037167;28;20502;-86
2022/02/22 04:51:37;;;;;;;54.20;23.02;;;4.40;99.90;;;;;;5053863;28;20021;-83
2022/02/22 04:54:03;;;;;;;53.03;22.25;;;4.40;99.90;;;;;;5053258;28;20024;-83
2022/02/22 04:56:29;;;;;;;60.55;24.63;;;4.40;99.90;;;;;;5055444;28;20036;-84
2022/02/22 04:58:56;;;;;;;53.72;22.23;;;4.40;99.90;;;;;;5054167;28;20025;-85
2022/02/22 05:01:22;;;;;;;50.70;22.13;;;4.40;99.90;;;;;;5053182;28;20025;-84
2022/02/22 05:03:48;;;;;;;53.25;24.55;;;4.40;99.90;;;;;;5053555;28;20067;-82
2022/02/22 05:06:14;;;;;;;52.00;23.55;;;4.40;99.90;;;;;;5053175;28;20439;-82
2022/02/22 05:08:40;;;;;;;56.67;24.05;;;4.40;99.90;;;;;;5054796;28;20032;-78
2022/02/22 05:11:07;;;;;;;51.75;21.67;;;4.50;99.90;;;;;;5052762;28;20032;-76
2022/02/22 05:13:33;;;;;;;49.47;22.45;;;4.50;99.90;;;;;;5053726;28;20025;-79
2022/02/22 05:15:59;;;;;;;49.38;22.02;;;4.50;99.90;;;;;;5052568;28;20115;-77
2022/02/22 05:18:24;;;;;;;51.38;21.98;;;4.50;99.90;;;;;;5052327;28;20029;-77
2022/02/22 05:20:56;;;;;;;53.78;22.13;;;4.60;99.90;;;;;;5053046;28;20017;-77
2022/02/22 05:23:33;;;;;;;44.95;20.75;;;4.60;99.90;;;;;;5053844;28;20068;-84
2022/02/22 05:26:00;;;;;;;59.53;24.85;;;4.60;99.90;;;;;;5053810;28;20385;-83
2022/02/22 05:28:26;;;;;;;44.92;21.10;;;4.60;99.90;;;;;;5054054;28;20043;-83
2022/02/22 05:30:53;;;;;;;43.47;20.73;;;4.60;99.90;;;;;;5054147;28;20025;-84
2022/02/22 05:33:20;;;;;;;51.17;22.00;;;4.70;99.90;;;;;;5053214;28;20112;-83
2022/02/22 05:35:47;;;;;;;53.03;22.55;;;4.70;99.90;;;;;;5052825;28;20488;-84
2022/02/22 05:38:13;;;;;;;47.67;20.88;;;4.70;99.90;;;;;;5053573;28;20029;-83
2022/02/22 05:40:39;;;;;;;40.35;18.83;;;4.80;99.90;;;;;;5053891;28;20028;-81
2022/02/22 05:43:05;;;;;;;40.30;17.80;;;4.80;99.90;;;;;;5052208;28;20020;-83
2022/02/22 05:45:30;;;;;;;40.05;18.58;;;4.90;99.90;;;;;;5053619;28;20107;-82
2022/02/22 05:47:56;;;;;;;43.88;18.88;;;4.90;99.90;;;;;;5052571;28;20033;-85
2022/02/22 05:50:22;;;;;;;48.42;20.23;;;4.90;99.90;;;;;;5052668;28;20100;-84
2022/02/22 05:52:48;;;;;;;39.53;17.80;;;4.90;99.90;;;;;;5051511;28;20017;-86
2022/02/22 05:55:14;;;;;;;42.47;19.55;;;4.90;99.90;;;;;;5053859;28;20162;-84
2022/02/22 05:57:40;;;;;;;48.63;20.67;;;4.90;99.90;;;;;;5069477;28;20094;-85
2022/02/22 06:00:10;;;;;;;48.60;20.08;;;5.00;99.90;;;;;;5052185;28;20458;-84
2022/02/22 06:02:38;;;;;;;35.97;17.83;;;5.00;99.90;;;;;;5052813;28;20021;-85
2022/02/22 06:05:04;;;;;;;38.50;18.73;;;5.00;99.90;;;;;;5051850;28;20036;-84
2022/02/22 06:07:29;;;;;;;41.53;18.90;;;5.00;99.90;;;;;;5052300;28;20021;-84
2022/02/22 06:09:56;;;;;;;43.47;20.00;;;5.00;99.90;;;;;;5053331;28;20033;-84
2022/02/22 06:12:21;;;;;;;42.35;20.05;;;5.10;99.90;;;;;;5050606;28;20481;-83
2022/02/22 06:14:47;;;;;;;43.85;18.73;;;5.10;99.90;;;;;;5047367;28;20032;-83
2022/02/22 06:17:13;;;;;;;41.63;19.13;;;5.10;99.90;;;;;;5056160;28;20032;-83
2022/02/22 06:19:39;;;;;;;40.47;19.05;;;5.10;99.90;;;;;;5090461;28;20025;-87
2022/02/22 06:22:04;;;;;;;35.88;17.05;;;5.10;99.90;;;;;;5068417;28;20025;-86
2022/02/22 06:24:30;;;;;;;38.53;17.33;;;5.10;99.90;;;;;;5053749;28;20028;-83
2022/02/22 06:26:56;;;;;;;33.33;15.55;;;5.20;99.90;;;;;;5052615;28;20359;-83
2022/02/22 06:29:23;;;;;;;40.97;17.90;;;5.20;99.90;;;;;;5052463;28;20036;-84
2022/02/22 06:31:50;;;;;;;43.33;19.83;;;5.20;99.90;;;;;;5052901;28;20095;-85
2022/02/22 06:34:17;;;;;;;43.15;19.88;;;5.30;99.90;;;;;;5053077;28;20036;-83
2022/02/22 06:36:42;;;;;;;38.25;19.27;;;5.30;99.90;;;;;;5069512;28;20052;-84
2022/02/22 06:39:08;;;;;;;38.78;18.65;;;5.30;99.90;;;;;;5054887;28;20060;-83
2022/02/22 06:41:33;;;;;;;38.53;18.08;;;5.30;99.90;;;;;;5054457;28;20052;-83
2022/02/22 06:43:59;;;;;;;42.10;19.20;;;5.30;99.90;;;;;;5040037;28;20080;-85
2022/02/22 06:46:25;;;;;;;41.40;19.73;;;5.40;99.90;;;;;;5034332;28;20076;-84
2022/02/22 06:48:50;;;;;;;41.03;18.45;;;5.40;99.90;;;;;;5033659;28;20060;-83
2022/02/22 06:51:16;;;;;;;47.17;20.02;;;5.40;99.90;;;;;;5033542;28;20074;-89
2022/02/22 06:53:42;;;;;;;40.55;18.52;;;5.50;99.90;;;;;;5032596;28;20513;-89
2022/02/22 06:56:08;;;;;;;38.92;18.83;;;5.50;99.90;;;;;;5032467;28;20069;-87
2022/02/22 06:58:33;;;;;;;38.97;18.70;;;5.50;99.90;;;;;;5032454;28;20022;-91
2022/02/22 07:00:59;;;;;;;30.88;15.60;;;5.50;99.90;;;;;;5038351;28;20363;-88
2022/02/22 07:03:25;;;;;;;32.55;16.35;;;5.50;99.90;;;;;;5035675;28;20103;-90
2022/02/22 07:05:51;;;;;;;39.33;18.83;;;5.60;99.90;;;;;;5037144;28;20029;-87
2022/02/22 07:08:17;;;;;;;38.03;18.23;;;5.60;99.90;;;;;;5052562;28;20017;-86
2022/02/22 07:10:42;;;;;;;32.05;17.20;;;5.70;99.90;;;;;;5036492;28;20022;-89
2022/02/22 07:13:09;;;;;;;37.20;16.85;;;5.70;99.90;;;;;;5053859;28;20359;-90
2022/02/22 07:15:35;;;;;;;35.30;17.58;;;5.90;99.90;;;;;;5040139;28;20053;-90
2022/02/22 07:18:08;;;;;;;33.40;17.35;;;6.00;99.90;;;;;;5055868;28;20375;-89
2022/02/22 07:20:34;;;;;;;33.63;16.75;;;6.10;99.90;;;;;;5056786;28;20021;-89
2022/02/22 07:23:00;;;;;;;35.67;18.00;;;6.20;99.90;;;;;;5066991;28;20048;-88
2022/02/22 07:25:28;;;;;;;34.80;16.73;;;6.20;99.90;;;;;;5089106;28;20044;-89
2022/02/22 07:27:54;;;;;;;30.25;16.23;;;6.30;99.90;;;;;;5058157;28;20017;-90
2022/02/22 07:30:21;;;;;;;27.30;14.48;;;6.40;99.90;;;;;;5053141;28;20024;-90
2022/02/22 07:32:48;;;;;;;28.23;14.77;;;6.40;99.90;;;;;;5053837;28;20028;-89
2022/02/22 07:35:14;;;;;;;28.95;14.57;;;6.40;99.90;;;;;;5054796;28;20083;-89
2022/02/22 07:37:40;;;;;;;27.30;13.45;;;6.40;99.90;;;;;;5054756;28;20071;-88
2022/02/22 07:40:09;;;;;;;25.00;13.63;;;6.40;99.90;;;;;;5056610;28;20029;-89
2022/02/22 07:42:38;;;;;;;23.90;12.90;;;6.40;99.90;;;;;;5056574;28;20063;-91
2022/02/22 07:45:05;;;;;;;24.40;13.27;;;6.40;99.90;;;;;;5056652;28;20036;-89
2022/02/22 07:47:31;;;;;;;27.05;13.80;;;6.40;99.90;;;;;;5056435;28;20053;-89
2022/02/22 07:49:58;;;;;;;24.55;12.93;;;6.30;99.90;;;;;;5056708;28;20047;-88
2022/02/22 07:52:25;;;;;;;23.42;12.23;;;6.30;99.90;;;;;;5055645;28;20021;-88
2022/02/22 07:54:51;;;;;;;21.10;11.68;;;6.30;99.90;;;;;;5054581;28;20067;-88
2022/02/22 07:57:16;;;;;;;26.00;13.43;;;6.30;99.90;;;;;;5055210;28;20025;-89
2022/02/22 07:59:42;;;;;;;28.90;14.45;;;6.40;99.90;;;;;;5056212;28;20021;-89
2022/02/22 08:02:08;;;;;;;24.95;13.35;;;6.30;99.90;;;;;;5055906;28;20025;-89
2022/02/22 08:04:33;;;;;;;25.38;12.45;;;6.40;99.90;;;;;;5054727;28;20452;-89
2022/02/22 08:07:00;;;;;;;22.95;12.38;;;6.30;99.90;;;;;;5071281;28;20032;-91
2022/02/22 08:09:26;;;;;;;22.20;13.07;;;6.30;99.90;;;;;;5055885;28;20055;-91
2022/02/22 08:11:52;;;;;;;24.85;12.70;;;6.30;99.90;;;;;;5055183;28;20439;-89
2022/02/22 08:14:17;;;;;;;29.08;13.45;;;6.30;99.90;;;;;;5054779;28;20442;-91
2022/02/22 08:16:43;;;;;;;23.52;13.05;;;6.30;99.90;;;;;;5055660;28;20101;-90
2022/02/22 08:19:09;;;;;;;25.95;12.98;;;6.40;99.90;;;;;;5056273;28;20032;-88
2022/02/22 08:21:35;;;;;;;23.10;12.60;;;6.40;99.90;;;;;;5055744;28;20415;-91
2022/02/22 08:24:01;;;;;;;21.73;11.43;;;6.40;99.90;;;;;;5055009;28;20037;-89
2022/02/22 08:26:27;;;;;;;23.38;12.00;;;6.40;99.90;;;;;;5057004;28;20017;-89
2022/02/22 08:28:53;;;;;;;26.95;13.30;;;6.40;99.90;;;;;;5056259;28;20013;-90
2022/02/22 08:31:19;;;;;;;23.50;13.05;;;6.50;99.90;;;;;;5054651;28;20017;-89
2022/02/22 08:33:45;;;;;;;23.73;12.63;;;6.50;99.90;;;;;;5055584;28;20028;-90
2022/02/22 08:36:12;;;;;;;23.95;12.63;;;6.50;99.90;;;;;;5055519;28;20090;-91
2022/02/22 08:38:39;;;;;;;24.75;12.55;;;6.60;99.90;;;;;;5054242;28;20025;-90
2022/02/22 08:41:06;;;;;;;25.30;14.10;;;6.60;99.90;;;;;;5055958;28;20017;-90
2022/02/22 08:43:33;;;;;;;22.60;12.77;;;6.70;99.90;;;;;;5055400;28;20032;-90
2022/02/22 08:46:01;;;;;;;29.23;14.63;;;6.70;99.90;;;;;;5059725;28;20048;-89
2022/02/22 08:48:27;;;;;;;27.00;13.93;;;6.70;99.90;;;;;;5056220;28;20036;-89
2022/02/22 08:50:53;;;;;;;29.85;14.45;;;6.90;99.90;;;;;;5054005;28;20447;-90
2022/02/22 08:53:19;;;;;;;28.50;14.38;;;6.90;99.90;;;;;;5055413;28;20021;-90
2022/02/22 08:55:44;;;;;;;27.75;14.98;;;7.10;99.90;;;;;;5053798;28;20040;-92
2022/02/22 08:58:10;;;;;;;27.42;15.05;;;7.30;99.90;;;;;;5054399;28;20451;-91
2022/02/22 09:00:39;;;;;;;26.08;14.48;;;7.40;99.90;;;;;;5055092;28;20032;-90
2022/02/22 09:03:05;;;;;;;30.75;15.00;;;7.50;99.90;;;;;;5055116;28;20086;-90
2022/02/22 09:05:33;;;;;;;26.15;13.88;;;7.60;99.90;;;;;;5056832;28;20444;-91
2022/02/22 09:07:59;;;;;;;26.95;13.65;;;7.80;99.90;;;;;;5054699;28;20095;-90
2022/02/22 09:10:25;;;;;;;26.92;14.18;;;7.80;99.90;;;;;;5053340;28;20025;-89
2022/02/22 09:12:51;;;;;;;25.50;13.98;;;7.80;99.90;;;;;;5053319;28;20070;-89
2022/02/22 09:15:19;;;;;;;29.20;15.57;;;7.90;99.90;;;;;;5054363;28;20029;-89
2022/02/22 09:17:46;;;;;;;26.27;14.35;;;8.00;99.90;;;;;;5053361;28;20025;-89
2022/02/22 09:20:13;;;;;;;30.33;16.05;;;7.90;99.90;;;;;;5054429;28;20016;-89
2022/02/22 09:22:39;;;;;;;27.83;15.43;;;8.00;99.90;;;;;;5052307;28;20064;-89
2022/02/22 09:25:07;;;;;;;33.05;16.73;;;8.00;99.90;;;;;;5053127;28;20447;-90
2022/02/22 09:27:33;;;;;;;27.33;15.20;;;8.00;99.90;;;;;;5054980;28;20021;-90
2022/02/22 09:29:58;;;;;;;30.67;15.68;;;8.00;99.90;;;;;;5069624;28;20016;-89
2022/02/22 09:32:25;;;;;;;28.25;15.45;;;8.00;99.90;;;;;;5054771;28;20354;-91
2022/02/22 09:34:51;;;;;;;28.88;15.40;;;8.10;99.90;;;;;;5057494;28;20035;-90
2022/02/22 09:37:17;;;;;;;26.27;15.35;;;8.20;99.90;;;;;;5062394;28;20439;-91
2022/02/22 09:39:43;;;;;;;31.25;16.23;;;8.40;99.90;;;;;;5066398;28;20034;-90
2022/02/22 09:42:09;;;;;;;27.83;15.10;;;8.60;99.90;;;;;;5090338;28;20009;-90
2022/02/22 09:44:38;;;;;;;31.05;16.45;;;8.80;99.90;;;;;;5071126;28;20028;-90
2022/02/22 09:47:05;;;;;;;28.27;15.63;;;9.10;97.60;;;;;;5057001;28;20021;-90
2022/02/22 09:49:30;;;;;;;27.35;15.50;;;9.20;95.80;;;;;;5055447;28;20455;-90
2022/02/22 09:51:57;;;;;;;23.90;14.20;;;9.30;96.20;;;;;;5055718;28;20025;-90
2022/02/22 09:54:23;;;;;;;30.05;16.08;;;9.30;95.80;;;;;;5055848;28;20025;-89
2022/02/22 09:56:49;;;;;;;25.05;14.15;;;9.40;93.80;;;;;;5054598;28;20066;-91
2022/02/22 09:59:16;;;;;;;28.67;15.70;;;9.40;93.80;;;;;;5056775;28;20063;-92
2022/02/22 10:01:45;;;;;;;25.10;14.63;;;9.40;92.60;;;;;;5055748;28;20017;-89
2022/02/22 10:04:13;;;;;;;24.77;14.55;;;9.30;92.70;;;;;;5054805;28;20028;-90
2022/02/22 10:06:42;;;;;;;24.65;13.90;;;9.30;93.50;;;;;;5053461;28;20031;-89
2022/02/22 10:09:12;;;;;;;28.13;14.80;;;9.30;93.60;;;;;;5054004;28;20031;-88
2022/02/22 10:11:49;;;;;;;23.83;13.55;;;9.40;93.10;;;;;;5052986;28;20420;-86
2022/02/22 10:14:22;;;;;;;24.42;14.35;;;9.40;92.80;;;;;;5054126;28;20359;-88
2022/02/22 10:16:49;;;;;;;25.80;14.27;;;9.50;91.60;;;;;;5054336;28;20036;-86
2022/02/22 10:19:16;;;;;;;26.65;14.40;;;9.50;92.00;;;;;;5053139;28;20017;-87
2022/02/22 10:21:43;;;;;;;24.27;14.25;;;9.60;91.80;;;;;;5053951;28;20499;-87
2022/02/22 10:24:11;;;;;;;25.35;14.18;;;9.60;91.60;;;;;;5056493;28;20045;-87
2022/02/22 10:26:36;;;;;;;22.75;13.70;;;9.70;91.70;;;;;;5053373;28;20124;-90
2022/02/22 10:29:13;;;;;;;23.05;14.00;;;9.80;91.60;;;;;;5054289;28;20036;-87
2022/02/22 10:31:40;;;;;;;25.30;14.48;;;10.00;90.20;;;;;;5052574;28;20033;-88
2022/02/22 10:34:05;;;;;;;24.48;13.80;;;10.10;88.60;;;;;;5055496;28;20097;-86
2022/02/22 10:36:34;;;;;;;24.30;12.85;;;10.10;88.70;;;;;;5057786;28;20439;-87
2022/02/22 10:39:08;;;;;;;20.38;11.90;;;10.00;88.10;;;;;;5056390;28;20025;-87
2022/02/22 10:41:39;;;;;;;20.55;11.82;;;10.00;88.80;;;;;;5057763;28;20025;-87
2022/02/22 10:44:08;;;;;;;21.58;13.18;;;10.10;90.10;;;;;;5057896;28;20478;-87
2022/02/22 10:46:40;;;;;;;22.13;12.55;;;10.20;89.60;;;;;;5058885;28;20021;-88
2022/02/22 10:49:13;;;;;;;23.33;14.30;;;10.30;87.50;;;;;;5059395;28;20502;-89
2022/02/22 10:51:49;;;;;;;24.60;14.10;;;10.40;85.40;;;;;;5056522;28;20024;-87
2022/02/22 10:54:26;;;;;;;26.20;14.75;;;10.30;84.70;;;;;;5055963;28;20455;-86
2022/02/22 10:56:56;;;;;;;26.38;14.02;;;10.40;84.30;;;;;;5058689;28;20028;-87
2022/02/22 10:59:24;;;;;;;24.80;13.95;;;10.30;84.30;;;;;;5058036;28;20103;-89
2022/02/22 11:01:50;;;;;;;26.10;14.68;;;10.30;84.70;;;;;;5056964;28;20401;-87
2022/02/22 11:04:17;;;;;;;23.42;13.15;;;10.50;85.00;;;;;;5057577;28;20480;-87
2022/02/22 11:06:42;;;;;;;20.83;12.25;;;10.70;85.60;;;;;;5057722;28;20021;-87
2022/02/22 11:09:12;;;;;;;21.65;12.35;;;11.10;87.50;;;;;;5057172;28;20409;-87
2022/02/22 11:11:58;;;;;;;23.53;13.07;;;11.60;84.30;;;;;;5056863;28;20017;-87
2022/02/22 11:14:27;;;;;;;22.55;13.00;;;12.20;79.60;;;;;;5056402;28;20079;-86
2022/02/22 11:16:56;;;;;;;23.50;13.30;;;12.60;82.30;;;;;;5057503;28;20025;-88
2022/02/22 11:19:28;;;;;;;21.55;13.05;;;13.10;80.50;;;;;;5057062;28;20028;-88
2022/02/22 11:21:56;;;;;;;21.17;12.57;;;13.70;76.60;;;;;;5072469;28;20025;-87
2022/02/22 11:24:22;;;;;;;18.02;11.05;;;14.00;73.80;;;;;;5075838;28;20115;-87
2022/02/22 11:26:59;;;;;;;18.33;11.30;;;14.20;73.20;;;;;;5062773;28;20036;-86
2022/02/22 11:29:27;;;;;;;17.73;11.55;;;14.50;72.10;;;;;;5057412;28;20074;-86
2022/02/22 11:32:02;;;;;;;16.90;11.35;;;14.80;70.40;;;;;;5057044;28;20025;-87
2022/02/22 11:34:40;;;;;;;16.27;10.60;;;14.90;69.60;;;;;;5056911;28;20031;-86
2022/02/22 11:37:11;;;;;;;17.13;10.93;;;15.30;64.80;;;;;;5055633;28;20021;-87
2022/02/22 11:39:46;;;;;;;15.57;10.20;;;15.60;68.20;;;;;;5054891;28;20088;-87
2022/02/22 11:42:18;;;;;;;14.05;9.20;;;16.20;64.50;;;;;;5054750;28;20037;-87
2022/02/22 11:44:59;;;;;;;15.18;10.30;;;16.90;62.50;;;;;;5056668;28;20087;-87
2022/02/22 11:47:25;;;;;;;15.25;9.75;;;17.60;57.60;;;;;;5056134;28;20084;-87
2022/02/22 11:49:56;;;;;;;14.70;10.40;;;18.10;62.20;;;;;;5056719;28;20027;-86
2022/02/22 11:52:45;;;;;;;17.02;10.68;;;18.40;60.30;;;;;;5056668;28;20017;-86
2022/02/22 11:55:16;;;;;;;14.63;9.85;;;18.80;53.90;;;;;;5056077;28;20440;-89
2022/02/22 11:57:51;;;;;;;16.02;10.32;;;19.20;58.50;;;;;;5055520;28;20032;-87
2022/02/22 12:00:19;;;;;;;14.32;10.38;;;19.50;52.10;;;;;;5055630;28;20047;-87
2022/02/22 12:02:45;;;;;;;14.05;9.30;;;19.60;55.40;;;;;;5057948;28;20059;-88
2022/02/22 12:05:38;;;;;;;14.27;9.30;;;19.90;55.30;;;;;;5054938;28;20021;-87
2022/02/22 12:08:20;;;;;;;12.05;8.48;;;20.20;54.30;;;;;;5054636;28;20112;-88
2022/02/22 12:10:52;;;;;;;12.82;8.18;;;20.20;52.30;;;;;;5055266;28;20029;-88
2022/02/22 12:13:24;;;;;;;12.20;8.52;;;20.00;53.70;;;;;;5054661;28;20075;-88
2022/02/22 12:15:51;;;;;;;10.73;7.75;;;19.90;53.00;;;;;;5054094;28;20033;-86
2022/02/22 12:18:19;;;;;;;11.98;8.05;;;19.70;53.20;;;;;;5055468;28;20545;-87
2022/02/22 12:20:47;;;;;;;13.30;9.07;;;19.70;53.10;;;;;;5055732;28;20032;-87
2022/02/22 12:23:17;;;;;;;11.45;7.95;;;19.70;52.00;;;;;;5054112;28;20072;-86
2022/02/22 12:25:43;;;;;;;12.85;8.30;;;19.70;52.20;;;;;;5055168;28;20021;-85
2022/02/22 12:28:09;;;;;;;13.48;9.40;;;19.30;51.50;;;;;;5054827;28;20036;-85
2022/02/22 12:30:37;;;;;;;12.35;8.77;;;19.20;51.60;;;;;;5054114;28;20030;-86
2022/02/22 12:33:06;;;;;;;12.15;8.52;;;19.40;51.60;;;;;;5054409;28;20025;-86
2022/02/22 12:35:37;;;;;;;11.05;8.07;;;19.50;51.00;;;;;;5055449;28;20139;-87
2022/02/22 12:38:19;;;;;;;11.10;7.50;;;19.30;50.50;;;;;;5053991;28;20033;-89